Latest Weather Observations for Cape Moreton

IDQ60801

Issued at 2:32 pm EST Thursday 25 April 2019 (issued every 10 minutes, with the page automatically refreshed every 10 minutes)

About weather observations | Map of weather stations | Latest weather observations for QLD | Other Formats
Station Details ID: 040043 Name: CAPE MORETON LIGHTHOUSE Lat: -27.03 Lon: 153.47 Height: 99.9 m
Data from the previous 72 hours. | See also: Recent months at Cape Moreton
Date/Time
EST
Temp
°C
App
Temp
°C
Dew
Point
°C
Rel
Hum
%
Delta-T
°C
Wind Press
QNH
hPa
Press
MSL
hPa
Rain since
9am
mm
Dir  Spd
km/h
Gust
km/h
Spd
kts
Gust
kts
25/02:30pm 24.1 22.2 17.6 67 4.1 ESE 24 30 13 16 1017.9 1017.5 0.0
25/02:00pm 23.8 21.8 17.3 67 4.0 ESE 24 30 13 16 1018.1 1017.7 0.0
25/01:30pm 24.4 23.0 17.9 67 4.1 ESE 22 28 12 15 1018.2 1017.8 0.0
25/01:00pm 24.5 22.4 18.0 67 4.1 ESE 26 32 14 17 1018.3 1017.9 0.0
25/12:30pm 24.3 21.6 17.5 66 4.2 ESE 28 33 15 18 1018.7 1018.3 0.0
25/12:00pm 24.2 21.8 18.2 69 3.8 ESE 28 32 15 17 1019.1 1018.7 0.0
25/11:30am 25.0 23.0 19.1 70 3.8 ESE 28 32 15 17 1019.7 1019.3 0.0
25/11:00am 23.7 21.8 17.7 69 3.7 ESE 24 30 13 16 1020.2 1019.8 0.0
25/10:30am 24.7 22.8 18.6 69 3.9 ESE 26 33 14 18 1020.5 1020.1 0.0
25/10:00am 24.8 22.8 18.3 67 4.1 ESE 26 32 14 17 1020.7 1020.3 0.0
25/09:30am 24.7 22.3 18.2 67 4.1 ESE 28 33 15 18 1020.6 1020.2 0.0
25/09:00am 23.9 21.3 17.9 69 3.8 ESE 28 32 15 17 1020.8 1020.4 1.8
25/08:30am 24.7 23.2 18.6 69 3.9 ESE 24 30 13 16 1020.7 1020.3 1.8
25/08:00am 24.4 22.6 18.8 71 3.6 ESE 26 32 14 17 1020.4 1020.0 1.8
25/07:30am 22.7 21.3 18.0 75 2.9 ESE 22 30 12 16 1020.2 1019.8 1.8
25/07:00am 22.2 20.3 17.6 75 2.9 ESE 24 32 13 17 1019.6 1019.2 1.8
25/06:30am 21.8 19.3 17.0 74 2.9 ESE 26 30 14 16 1019.7 1019.3 1.8
25/06:00am 21.6 19.5 17.2 76 2.7 ESE 24 28 13 15 1019.6 1019.2 1.8
25/05:30am 21.6 20.2 17.0 75 2.8 ESE 20 26 11 14 1019.8 1019.4 1.8
25/05:00am 21.7 19.7 17.3 76 2.7 ESE 24 30 13 16 1019.2 1018.8 1.8
25/04:30am 21.8 19.7 17.2 75 2.8 ESE 24 28 13 15 1019.0 1018.6 1.8
25/04:00am 21.6 20.3 17.2 76 2.7 ESE 20 26 11 14 1019.1 1018.7 1.8
25/03:30am 21.7 18.9 17.3 76 2.7 SE 28 32 15 17 1018.7 1018.3 1.8
25/03:00am 21.4 19.3 17.2 77 2.6 ESE 24 35 13 19 1019.0 1018.6 1.8
25/02:30am 21.5 19.5 17.3 77 2.6 ESE 24 28 13 15 1019.3 1018.9 1.8
25/02:00am 21.6 20.0 17.4 77 2.6 E 22 28 12 15 1020.3 1019.9 1.8
25/01:30am 21.6 20.5 17.2 76 2.7 E 19 24 10 13 1020.5 1020.1 1.8
25/01:00am 21.3 20.2 17.3 78 2.5 SE 19 22 10 12 1020.3 1019.9 1.8
25/12:30am 20.9 18.5 17.3 80 2.2 SE 26 32 14 17 1020.2 1019.8 1.8
25/12:00am 20.6 17.0 17.2 81 2.1 ESE 32 39 17 21 1020.3 1019.9 1.8
 
Date/Time
EST
Temp
°C
App
Temp
°C
Dew
Point
°C
Rel
Hum
%
Delta-T
°C
Wind Press
QNH
hPa
Press
MSL
hPa
Rain since
9am
mm
Dir  Spd
km/h
Gust
km/h
Spd
kts
Gust
kts
24/11:30pm 20.1 16.6 17.5 85 1.6 ESE 32 41 17 22 1021.1 1020.7 1.8
24/11:00pm 19.5 17.1 18.3 93 0.7 E 28 43 15 23 1021.5 1021.1 1.8
24/10:30pm 19.6 19.4 18.4 93 0.7 ESE 17 20 9 11 1021.6 1021.3 1.2
24/10:00pm 19.5 18.7 18.5 94 0.6 ENE 20 26 11 14 1021.8 1021.5 1.2
24/09:30pm 19.2 18.6 18.4 95 0.5 ESE 19 24 10 13 1022.3 1022.0 1.2
24/09:00pm 19.3 17.0 18.5 95 0.5 E 28 37 15 20 1022.3 1022.0 1.0
24/08:30pm 18.8 14.2 18.1 96 0.4 ESE 39 50 21 27 1021.9 1021.6 0.8
24/08:00pm 19.3 12.7 18.1 93 0.7 SE 50 61 27 33 1021.4 1021.0 0.0
24/07:30pm 21.2 16.6 18.8 86 1.5 SE 41 48 22 26 1021.3 1020.9 0.0
24/07:00pm 21.1 16.8 17.7 81 2.1 ESE 37 50 20 27 1021.1 1020.7 0.0
24/06:30pm 21.1 16.8 18.7 86 1.5 ESE 39 46 21 25 1020.7 1020.3 0.0
24/06:00pm 21.3 16.9 18.5 84 1.8 ESE 39 46 21 25 1020.5 1020.1 0.0
24/05:30pm 21.3 16.5 18.5 84 1.8 ESE 41 46 22 25 1020.2 1019.8 0.0
24/05:00pm 21.0 15.7 18.2 84 1.7 ESE 43 46 23 25 1020.1 1019.7 0.0
24/04:30pm 21.4 16.5 18.2 82 2.0 ESE 41 48 22 26 1019.9 1019.5 0.0
24/04:00pm 21.6 18.1 18.8 84 1.8 ESE 35 43 19 23 1020.0 1019.6 0.0
24/03:30pm 21.4 18.7 19.3 88 1.3 ESE 32 39 17 21 1020.1 1019.7 0.0
24/03:00pm 21.6 17.2 18.4 82 2.0 ESE 39 48 21 26 1020.0 1019.6 0.0
24/02:30pm 22.2 18.3 17.8 76 2.7 ESE 35 41 19 22 1020.1 1019.7 0.0
24/02:00pm 22.5 19.6 19.3 82 2.0 ESE 33 39 18 21 1020.4 1020.0 0.0
24/01:30pm 22.6 19.6 19.0 80 2.3 SE 33 39 18 21 1020.5 1020.1 0.0
24/01:00pm 22.9 18.5 18.4 76 2.8 ESE 39 46 21 25 1020.5 1020.1 0.0
24/12:30pm 22.8 17.9 18.1 75 2.9 ESE 41 48 22 26 1020.6 1020.2 0.0
24/12:00pm 23.7 19.9 19.0 75 3.0 ESE 37 46 20 25 1020.9 1020.5 0.0
24/11:30am 23.1 18.2 18.2 74 3.1 ESE 41 48 22 26 1021.2 1020.8 0.0
24/11:00am 23.5 19.1 18.4 73 3.2 ESE 39 46 21 25 1021.9 1021.6 0.0
24/10:30am 22.5 17.7 18.5 78 2.5 ESE 41 50 22 27 1022.2 1021.9 0.0
24/10:00am 23.5 18.8 17.7 70 3.6 ESE 39 46 21 25 1022.3 1022.0 0.0
24/09:30am 24.3 20.2 19.1 73 3.3 ESE 39 48 21 26 1022.3 1022.0 0.0
24/09:00am 23.0 18.1 18.1 74 3.1 ESE 41 48 22 26 1022.1 1021.8 1.6
24/08:30am 22.8 17.2 17.5 72 3.3 ESE 43 52 23 28 1022.0 1021.7 1.6
24/08:00am 22.9 17.5 18.0 74 3.1 ESE 43 48 23 26 1022.0 1021.7 1.6
24/07:30am 23.0 18.6 18.5 76 2.8 ESE 39 48 21 26 1021.6 1021.3 1.6
24/07:00am 22.1 16.3 17.0 73 3.1 ESE 43 48 23 26 1021.3 1020.9 1.6
24/06:30am 21.9 16.5 17.9 78 2.5 ESE 43 50 23 27 1021.1 1020.7 1.6
24/06:00am 21.9 16.6 18.1 79 2.4 ESE 43 50 23 27 1020.9 1020.5 1.6
24/05:30am 21.7 15.9 18.3 81 2.1 ESE 46 52 25 28 1020.6 1020.2 1.6
24/05:00am 20.5 18.4 19.0 91 0.9 ESE 28 46 15 25 1020.4 1020.0 1.6
24/04:30am 21.2 16.4 18.4 84 1.8 SE 41 50 22 27 1020.3 1019.9 0.2
24/04:00am 21.9 16.9 18.9 83 1.9 ESE 43 50 23 27 1020.1 1019.7 0.2
24/03:30am 22.0 16.9 18.6 81 2.1 ESE 43 50 23 27 1020.0 1019.6 0.2
24/03:00am 22.0 16.5 18.2 79 2.4 ESE 44 54 24 29 1020.4 1020.0 0.2
24/02:30am 22.0 16.6 17.8 77 2.6 ESE 43 50 23 27 1020.5 1020.1 0.2
24/02:00am 22.2 16.8 17.8 76 2.7 ESE 43 50 23 27 1020.6 1020.2 0.2
24/01:30am 22.1 17.2 17.2 74 3.0 ESE 39 46 21 25 1020.9 1020.5 0.2
24/01:00am 22.2 16.5 17.3 74 3.0 ESE 43 48 23 26 1021.1 1020.7 0.2
24/12:30am 22.3 16.6 17.2 73 3.1 ESE 43 48 23 26 1021.3 1020.9 0.2
24/12:00am 22.2 16.5 17.1 73 3.1 ESE 43 52 23 28 1021.8 1021.5 0.2
 
Date/Time
EST
Temp
°C
App
Temp
°C
Dew
Point
°C
Rel
Hum
%
Delta-T
°C
Wind Press
QNH
hPa
Press
MSL
hPa
Rain since
9am
mm
Dir  Spd
km/h
Gust
km/h
Spd
kts
Gust
kts
23/11:30pm 22.2 16.3 17.1 73 3.1 ESE 44 52 24 28 1021.9 1021.6 0.2
23/11:00pm 22.3 16.5 17.0 72 3.3 ESE 43 50 23 27 1022.2 1021.9 0.2
23/10:30pm 22.3 16.4 17.2 73 3.1 ESE 44 50 24 27 1022.4 1022.1 0.2
23/10:00pm 22.3 15.5 16.8 71 3.4 ESE 48 56 26 30 1022.3 1022.0 0.2
23/09:30pm 22.4 15.2 16.7 70 3.5 ESE 50 57 27 31 1022.2 1021.9 0.2
23/09:00pm 22.4 16.3 17.5 74 3.0 ESE 46 54 25 29 1022.5 1022.2 0.2
23/08:30pm 22.3 16.0 17.0 72 3.3 ESE 46 54 25 29 1022.7 1022.4 0.2
23/08:00pm 22.5 16.6 18.1 76 2.7 ESE 46 54 25 29 1022.6 1022.3 0.2
23/07:30pm 21.0 14.8 18.2 84 1.7 SE 48 57 26 31 1022.4 1022.1 0.2
23/07:00pm 22.8 17.7 18.6 77 2.6 ESE 43 52 23 28 1022.2 1021.9 0.2
23/06:30pm 22.7 17.9 18.3 76 2.8 ESE 41 50 22 27 1021.8 1021.5 0.2
23/06:00pm 22.6 17.2 17.9 75 2.9 ESE 43 50 23 27 1021.4 1021.0 0.2
23/05:30pm 22.9 17.7 18.9 78 2.5 ESE 44 52 24 28 1021.4 1021.0 0.2
23/05:00pm 22.8 17.5 18.1 75 2.9 ESE 43 52 23 28 1021.1 1020.7 0.2
23/04:30pm 23.2 17.9 18.1 73 3.2 ESE 43 50 23 27 1021.0 1020.6 0.2
23/04:00pm 23.3 17.4 18.0 72 3.3 ESE 46 54 25 29 1020.8 1020.4 0.2
23/03:30pm 23.8 18.4 18.0 70 3.6 ESE 43 52 23 28 1020.7 1020.3 0.2
23/03:00pm 23.8 18.6 18.4 72 3.4 ESE 43 52 23 28 1020.7 1020.3 0.2
23/02:30pm 23.4 18.3 18.5 74 3.1 ESE 43 52 23 28 1020.6 1020.2 0.2
23/02:00pm 23.5 18.2 18.6 74 3.1 ESE 44 54 24 29 1020.6 1020.2 0.2
23/01:30pm 23.3 18.4 19.0 77 2.7 ESE 43 52 23 28 1020.8 1020.4 0.2
23/01:00pm 22.8 17.8 19.2 80 2.3 ESE 44 54 24 29 1021.0 1020.6 0.2
23/12:30pm 24.1 19.1 19.2 74 3.1 ESE 44 52 24 28 1021.3 1020.9 0.2
23/12:00pm 24.0 18.8 18.9 73 3.2 ESE 44 52 24 28 1021.7 1021.4 0.2
23/11:30am 23.7 17.7 18.8 74 3.1 ESE 48 59 26 32 1022.0 1021.7 0.2
23/11:00am 23.6 17.3 18.9 75 3.0 ESE 50 59 27 32 1022.1 1021.8 0.2
23/10:30am 23.5 17.3 19.2 77 2.8 ESE 50 57 27 31 1022.4 1022.1 0.2
23/10:00am 24.5 19.0 19.8 75 3.0 ESE 48 57 26 31 1022.6 1022.3 0.2
23/09:30am 23.8 18.9 19.5 77 2.8 ESE 44 50 24 27 1022.8 1022.5 0.0
23/09:00am 23.5 17.9 19.6 79 2.5 ESE 48 57 26 31 1022.8 1022.5 0.6
23/08:30am 23.4 18.0 19.1 77 2.7 ESE 46 54 25 29 1022.8 1022.5 0.6
23/08:00am 22.3 17.1 19.7 85 1.7 ESE 46 56 25 30 1022.6 1022.3 0.6
23/07:37am 22.0 17.4 19.7 87 1.5 ESE 43 61 23 33 1022.4 1022.1 0.2
23/07:30am 22.1 17.6 19.8 87 1.5 ESE 43 50 23 27 1022.6 1022.3 0.2
23/07:00am 22.6 18.1 19.8 84 1.8 ESE 43 50 23 27 1022.3 1022.0 0.2
23/06:30am 22.1 17.7 19.3 84 1.8 ESE 41 50 22 27 1021.9 1021.6 0.2
23/06:00am 22.2 19.2 19.9 87 1.5 SE 35 43 19 23 1021.5 1021.1 0.2
23/05:30am 21.7 16.7 18.9 84 1.8 ESE 43 50 23 27 1021.0 1020.6 0.2
23/05:00am 22.0 16.1 19.0 83 1.9 ESE 48 56 26 30 1020.7 1020.3 0.2
23/04:30am 22.3 17.2 18.5 79 2.4 ESE 43 50 23 27 1020.5 1020.1 0.2
23/04:00am 22.5 17.9 18.9 80 2.3 ESE 41 50 22 27 1020.6 1020.2 0.2
23/03:30am 22.6 16.8 18.4 77 2.6 ESE 46 52 25 28 1020.4 1020.0 0.2
23/03:00am 22.6 17.5 18.6 78 2.5 ESE 43 52 23 28 1020.6 1020.2 0.2
23/02:30am 22.7 17.8 19.1 80 2.3 ESE 43 50 23 27 1020.7 1020.3 0.2
23/02:00am 22.7 18.2 19.1 80 2.3 ESE 41 48 22 26 1020.8 1020.4 0.2
23/01:30am 22.7 17.7 18.9 79 2.4 ESE 43 50 23 27 1020.8 1020.4 0.2
23/01:00am 22.6 17.5 18.6 78 2.5 ESE 43 48 23 26 1021.2 1020.8 0.2
23/12:30am 22.8 17.7 18.6 77 2.7 ESE 43 50 23 27 1021.6 1021.3 0.2
23/12:00am 22.9 17.4 18.0 74 3.1 ESE 44 52 24 28 1021.5 1021.1 0.2
 
Date/Time
EST
Temp
°C
App
Temp
°C
Dew
Point
°C
Rel
Hum
%
Delta-T
°C
Wind Press
QNH
hPa
Press
MSL
hPa
Rain since
9am
mm
Dir  Spd
km/h
Gust
km/h
Spd
kts
Gust
kts
22/11:30pm 22.9 17.4 18.0 74 3.1 ESE 44 54 24 29 1021.5 1021.1 0.2
22/11:00pm 22.9 17.6 18.2 75 2.9 ESE 43 50 23 27 1021.8 1021.5 0.2
22/10:30pm 23.1 17.7 18.0 73 3.2 ESE 43 48 23 26 1021.9 1021.6 0.2
22/10:00pm 22.9 17.7 18.4 76 2.8 ESE 43 48 23 26 1021.8 1021.5 0.2
22/09:30pm 22.9 17.7 18.7 77 2.7 ESE 44 52 24 28 1021.7 1021.4 0.2
22/09:00pm 22.9 18.1 19.3 80 2.3 ESE 43 54 23 29 1021.5 1021.1 0.2
22/08:30pm 22.7 17.4 18.5 77 2.7 ESE 44 54 24 29 1021.3 1020.9 0.2
22/08:00pm 22.8 17.8 18.8 78 2.5 ESE 43 52 23 28 1021.3 1020.9 0.2
22/07:30pm 22.8 17.5 18.6 77 2.7 ESE 44 50 24 27 1021.1 1020.7 0.2
22/07:00pm 22.8 17.7 18.6 77 2.6 ESE 43 52 23 28 1020.6 1020.2 0.2
22/06:30pm 22.8 18.2 18.8 78 2.5 ESE 41 50 22 27 1020.3 1019.9 0.2
22/06:00pm 22.7 17.3 18.3 76 2.8 ESE 44 50 24 27 1020.1 1019.7 0.2
22/05:30pm 22.7 18.0 18.7 78 2.5 ESE 41 48 22 26 1020.0 1019.6 0.2
22/05:00pm 22.8 18.9 19.6 82 2.1 ESE 39 48 21 26 1019.4 1019.0 0.2
22/04:30pm 22.8 19.5 20.0 84 1.8 ESE 37 48 20 26 1019.6 1019.2 0.2
22/04:00pm 22.2 18.5 19.9 87 1.5 ESE 39 52 21 28 1019.1 1018.7 0.0
22/03:42pm 22.7 18.6 19.1 80 2.3 ESE 39 57 21 31 1019.0 1018.6 0.0
22/03:30pm 22.9 19.5 18.9 78 2.5 ESE 35 43 19 23 1019.3 1018.9 0.0
22/03:00pm 22.3 18.8 18.7 80 2.3 ESE 35 46 19 25 1019.3 1018.9 0.0

Other formats

Comma delimited format used in spreadsheet applications
http://www.bom.gov.au/fwo/IDQ60801/IDQ60801.94594.axf

JavaScript Object Notation format (JSON) in row-major order
http://www.bom.gov.au/fwo/IDQ60801/IDQ60801.94594.json

Data quality

Most of these data are generated automatically and are frequently updated. Quality checks on data are not normally performed. It is possible for incorrect values to appear. Refer to information at About Latest Weather Observations and please check the disclaimer before using these data.